LEB weather

Public forecast

Using degrees Celsius for public forecast. Weather courtesy of forecast.io.

Closest aviation weather report (METAR) to La Gaviota Airport

Report is more than 6 hours old.

Closest report is Las Brujas Airport, 54.3 nm (100.5 km) WSW. Retrieved 2020/08/08 20:00 UTC (4 days ago):

SKCZ 082000Z 00000KT 9999 SCT020 34/24 A2978

Closest aviation forecast (TAF) to La Gaviota Airport

Closest forecast is Ernesto Cortissoz International Airport, 77.7 nm (143.8 km) NNW. Retrieved 2020-08-13 00:38 UTC (0 seconds ago):

TAF SKBQ 122230Z 1300/1324 02012KT 9999 FEW015 BECMG 1310/1312 VRB02KT TEMPO 1311/1314 4000 BR BKN010 TEMPO 1319/1322 TSRA FEW015CB BKN080 BECMG 1321/1323 01010KT TX33/1317Z TN26/1309Z